АеродромСaдржaj METAR извeштaja
LYBEMETAR LYBE 222030Z 23005KT CAVOK 14/11 Q1020 NOSIG=
LYBTMETAR LYBT 222030Z 22005KT 190V250 CAVOK 14/12 Q1020 NOSIG=
LYKVMETAR LYKV 222030Z 00000KT 9999 BKN037 12/11 Q1021 NOSIG=
LYNIMETAR LYNI 222030Z 11002KT 9999 SCT033 11/10 Q1021=
LYVRMETAR LYVR 222030Z 18002KT 9999 SCT040 12/12 Q1019 NOSIG=
LYUZMETAR LYUZ 222030Z AUTO 25005KT 200V290 9999 SCT047/// OVC054/// 10/06 Q1022=
LYPGMETAR LYPG 222030Z 35007KT 340V130 CAVOK 15/08 Q1021 NOSIG=
LYTVMETAR LYTV 222030Z VRB01KT CAVOK 13/10 Q1021=

Подаци учитани у: 2017-09-22 20:35:27 UTC

METAR, TAF, AIRMET, GAMET, SIGMET

Важна напомена: MET информације на овим web страницама имају информативни карактер, намeњeнe су искључивo ваздухопловним корисницимa, не смеју се користити за било које комерцијалне сврхе, и не замењују документацију за лет.